Lake Panasoffkee, Florida
Current Conditions -  °F | °C
As of 3:55 PM on Tuesday 25 Nov 2014 (Local Time) from KINF Reporting Station
Thunderstorm Thunderstorm  
Wind Chill: 68°   Ceiling: 2700
Heat Index: 68°   Visibility: 2.5mi
Dew Point: 66°   Wind: 7mph
Humidity: 94%   Direction: 40°NE
Pressure: 29.9"   Gusts: NA
Location:  28.76°N, 82.09°W
Report Text: KINF 252055Z AUTO 04006KT 2 1/2SM +TSRA SCT003 BKN027 OVC055 20/19 A2990 RMK AO2 LTG DSNT ALQS P0092
Loading
Personal Weather Stations






























Interactive Weather Map New forecast layout! Learn more

10-Day Weather Forecast

Advertisements
Track Severe Weather on mobile